sensor_id;sensor_type;location;lat;lon;timestamp;P1;durP1;ratioP1;P2;durP2;ratioP2
18818;SDS011;9537;45.594;9.294;2023-09-18T00:00:56;8.25;;;7.00;;
18818;SDS011;9537;45.594;9.294;2023-09-18T00:01:58;7.47;;;6.68;;
18818;SDS011;9537;45.594;9.294;2023-09-18T00:02:58;8.32;;;6.53;;
18818;SDS011;9537;45.594;9.294;2023-09-18T00:04:03;8.15;;;6.35;;
18818;SDS011;9537;45.594;9.294;2023-09-18T00:05:04;9.93;;;5.82;;
18818;SDS011;9537;45.594;9.294;2023-09-18T00:06:06;7.53;;;6.57;;
18818;SDS011;9537;45.594;9.294;2023-09-18T00:07:09;7.65;;;6.40;;
18818;SDS011;9537;45.594;9.294;2023-09-18T00:08:11;8.25;;;6.28;;
18818;SDS011;9537;45.594;9.294;2023-09-18T00:09:12;9.63;;;6.82;;
18818;SDS011;9537;45.594;9.294;2023-09-18T00:10:14;8.95;;;6.50;;
18818;SDS011;9537;45.594;9.294;2023-09-18T00:11:16;9.05;;;7.05;;
18818;SDS011;9537;45.594;9.294;2023-09-18T00:12:18;9.13;;;7.03;;
18818;SDS011;9537;45.594;9.294;2023-09-18T00:13:19;9.02;;;7.30;;
18818;SDS011;9537;45.594;9.294;2023-09-18T00:14:20;7.90;;;7.10;;
18818;SDS011;9537;45.594;9.294;2023-09-18T00:15:22;9.40;;;6.45;;
18818;SDS011;9537;45.594;9.294;2023-09-18T00:16:24;10.73;;;7.00;;
18818;SDS011;9537;45.594;9.294;2023-09-18T00:17:27;7.93;;;6.35;;
18818;SDS011;9537;45.594;9.294;2023-09-18T00:18:28;8.60;;;7.07;;
18818;SDS011;9537;45.594;9.294;2023-09-18T00:19:29;8.30;;;6.95;;
18818;SDS011;9537;45.594;9.294;2023-09-18T00:20:31;8.95;;;6.72;;
18818;SDS011;9537;45.594;9.294;2023-09-18T00:21:33;13.02;;;7.10;;
18818;SDS011;9537;45.594;9.294;2023-09-18T00:22:34;10.90;;;6.70;;
18818;SDS011;9537;45.594;9.294;2023-09-18T00:23:36;7.78;;;7.07;;
18818;SDS011;9537;45.594;9.294;2023-09-18T00:24:37;8.20;;;6.90;;
18818;SDS011;9537;45.594;9.294;2023-09-18T00:25:39;11.32;;;7.30;;
18818;SDS011;9537;45.594;9.294;2023-09-18T00:26:44;10.63;;;7.70;;
18818;SDS011;9537;45.594;9.294;2023-09-18T00:27:46;9.75;;;6.95;;
18818;SDS011;9537;45.594;9.294;2023-09-18T00:28:46;9.40;;;6.93;;
18818;SDS011;9537;45.594;9.294;2023-09-18T00:29:47;11.75;;;7.38;;
18818;SDS011;9537;45.594;9.294;2023-09-18T00:30:49;9.35;;;6.88;;
18818;SDS011;9537;45.594;9.294;2023-09-18T00:31:50;12.25;;;6.60;;
18818;SDS011;9537;45.594;9.294;2023-09-18T00:32:52;9.15;;;6.78;;
18818;SDS011;9537;45.594;9.294;2023-09-18T00:33:53;10.60;;;6.90;;
18818;SDS011;9537;45.594;9.294;2023-09-18T00:34:58;9.55;;;7.05;;
18818;SDS011;9537;45.594;9.294;2023-09-18T00:35:58;10.60;;;6.82;;
18818;SDS011;9537;45.594;9.294;2023-09-18T00:37:02;9.60;;;7.20;;
18818;SDS011;9537;45.594;9.294;2023-09-18T00:38:03;8.02;;;6.88;;
18818;SDS011;9537;45.594;9.294;2023-09-18T00:39:07;9.50;;;6.82;;
18818;SDS011;9537;45.594;9.294;2023-09-18T00:40:08;11.20;;;7.03;;
18818;SDS011;9537;45.594;9.294;2023-09-18T00:41:11;8.65;;;7.03;;
18818;SDS011;9537;45.594;9.294;2023-09-18T00:42:14;9.23;;;7.28;;
18818;SDS011;9537;45.594;9.294;2023-09-18T00:43:18;14.85;;;8.52;;
18818;SDS011;9537;45.594;9.294;2023-09-18T00:44:18;13.90;;;7.50;;
18818;SDS011;9537;45.594;9.294;2023-09-18T00:45:20;8.88;;;7.55;;
18818;SDS011;9537;45.594;9.294;2023-09-18T00:46:21;8.77;;;7.60;;
18818;SDS011;9537;45.594;9.294;2023-09-18T00:47:26;14.75;;;8.60;;
18818;SDS011;9537;45.594;9.294;2023-09-18T00:48:27;12.30;;;7.78;;
18818;SDS011;9537;45.594;9.294;2023-09-18T00:49:29;9.00;;;6.90;;
18818;SDS011;9537;45.594;9.294;2023-09-18T00:50:31;12.93;;;6.95;;
18818;SDS011;9537;45.594;9.294;2023-09-18T00:51:33;7.80;;;6.97;;
18818;SDS011;9537;45.594;9.294;2023-09-18T00:52:34;10.82;;;7.05;;
18818;SDS011;9537;45.594;9.294;2023-09-18T00:53:36;10.50;;;6.97;;
18818;SDS011;9537;45.594;9.294;2023-09-18T00:54:38;13.05;;;7.90;;
18818;SDS011;9537;45.594;9.294;2023-09-18T00:55:41;10.63;;;6.82;;
18818;SDS011;9537;45.594;9.294;2023-09-18T00:56:42;8.93;;;6.75;;
18818;SDS011;9537;45.594;9.294;2023-09-18T00:57:46;8.68;;;7.05;;
18818;SDS011;9537;45.594;9.294;2023-09-18T00:58:47;11.73;;;6.90;;
18818;SDS011;9537;45.594;9.294;2023-09-18T00:59:49;8.38;;;6.88;;
18818;SDS011;9537;45.594;9.294;2023-09-18T01:00:50;7.60;;;6.80;;
18818;SDS011;9537;45.594;9.294;2023-09-18T01:01:52;10.00;;;6.78;;
18818;SDS011;9537;45.594;9.294;2023-09-18T01:02:54;8.13;;;6.50;;
18818;SDS011;9537;45.594;9.294;2023-09-18T01:03:56;9.43;;;6.60;;
18818;SDS011;9537;45.594;9.294;2023-09-18T01:04:58;11.85;;;7.00;;
18818;SDS011;9537;45.594;9.294;2023-09-18T01:06:00;11.60;;;7.00;;
18818;SDS011;9537;45.594;9.294;2023-09-18T01:07:00;8.70;;;7.43;;
18818;SDS011;9537;45.594;9.294;2023-09-18T01:08:03;9.15;;;6.82;;
18818;SDS011;9537;45.594;9.294;2023-09-18T01:09:05;8.55;;;6.50;;
18818;SDS011;9537;45.594;9.294;2023-09-18T01:10:12;9.30;;;7.10;;
18818;SDS011;9537;45.594;9.294;2023-09-18T01:11:18;8.52;;;7.20;;
18818;SDS011;9537;45.594;9.294;2023-09-18T01:12:27;9.38;;;6.60;;
18818;SDS011;9537;45.594;9.294;2023-09-18T01:13:37;8.20;;;6.60;;
18818;SDS011;9537;45.594;9.294;2023-09-18T01:14:49;7.15;;;6.28;;
18818;SDS011;9537;45.594;9.294;2023-09-18T01:15:57;10.68;;;6.55;;
18818;SDS011;9537;45.594;9.294;2023-09-18T01:17:04;7.30;;;6.57;;
18818;SDS011;9537;45.594;9.294;2023-09-18T01:18:08;9.65;;;6.88;;
18818;SDS011;9537;45.594;9.294;2023-09-18T01:19:11;9.55;;;6.60;;
18818;SDS011;9537;45.594;9.294;2023-09-18T01:20:11;11.10;;;7.28;;
18818;SDS011;9537;45.594;9.294;2023-09-18T01:21:13;11.50;;;7.38;;
18818;SDS011;9537;45.594;9.294;2023-09-18T01:22:15;8.48;;;7.07;;
18818;SDS011;9537;45.594;9.294;2023-09-18T01:23:19;10.55;;;7.82;;
18818;SDS011;9537;45.594;9.294;2023-09-18T01:24:20;10.27;;;6.85;;
18818;SDS011;9537;45.594;9.294;2023-09-18T01:25:22;7.43;;;6.72;;
18818;SDS011;9537;45.594;9.294;2023-09-18T01:26:23;8.95;;;7.70;;
18818;SDS011;9537;45.594;9.294;2023-09-18T01:27:24;9.23;;;7.28;;
18818;SDS011;9537;45.594;9.294;2023-09-18T01:28:25;10.82;;;7.45;;
18818;SDS011;9537;45.594;9.294;2023-09-18T01:29:27;12.18;;;7.82;;
18818;SDS011;9537;45.594;9.294;2023-09-18T01:30:30;8.70;;;7.50;;
18818;SDS011;9537;45.594;9.294;2023-09-18T01:31:34;10.55;;;7.45;;
18818;SDS011;9537;45.594;9.294;2023-09-18T01:32:38;10.90;;;7.63;;
18818;SDS011;9537;45.594;9.294;2023-09-18T01:33:41;8.80;;;6.55;;
18818;SDS011;9537;45.594;9.294;2023-09-18T01:34:44;8.40;;;7.18;;
18818;SDS011;9537;45.594;9.294;2023-09-18T01:35:48;10.20;;;7.88;;
18818;SDS011;9537;45.594;9.294;2023-09-18T01:36:50;14.93;;;7.88;;
18818;SDS011;9537;45.594;9.294;2023-09-18T01:37:53;9.73;;;7.88;;
18818;SDS011;9537;45.594;9.294;2023-09-18T01:38:56;10.10;;;6.75;;
18818;SDS011;9537;45.594;9.294;2023-09-18T01:39:59;9.55;;;6.88;;
18818;SDS011;9537;45.594;9.294;2023-09-18T01:41:00;10.48;;;7.10;;
18818;SDS011;9537;45.594;9.294;2023-09-18T01:42:03;9.95;;;6.28;;
18818;SDS011;9537;45.594;9.294;2023-09-18T01:43:05;8.75;;;7.07;;
18818;SDS011;9537;45.594;9.294;2023-09-18T01:44:08;9.38;;;6.65;;
18818;SDS011;9537;45.594;9.294;2023-09-18T01:45:08;11.18;;;7.18;;
18818;SDS011;9537;45.594;9.294;2023-09-18T01:46:10;9.02;;;7.18;;
18818;SDS011;9537;45.594;9.294;2023-09-18T01:47:12;10.50;;;7.40;;
18818;SDS011;9537;45.594;9.294;2023-09-18T01:48:17;11.77;;;6.68;;
18818;SDS011;9537;45.594;9.294;2023-09-18T01:49:25;8.82;;;7.05;;
18818;SDS011;9537;45.594;9.294;2023-09-18T01:50:27;10.43;;;7.75;;
18818;SDS011;9537;45.594;9.294;2023-09-18T01:51:29;10.70;;;7.90;;
18818;SDS011;9537;45.594;9.294;2023-09-18T01:52:29;8.85;;;6.85;;
18818;SDS011;9537;45.594;9.294;2023-09-18T01:53:31;9.60;;;7.32;;
18818;SDS011;9537;45.594;9.294;2023-09-18T01:54:34;10.00;;;7.05;;
18818;SDS011;9537;45.594;9.294;2023-09-18T01:55:36;9.25;;;6.95;;
18818;SDS011;9537;45.594;9.294;2023-09-18T01:56:37;11.43;;;7.07;;
18818;SDS011;9537;45.594;9.294;2023-09-18T01:57:39;9.50;;;7.65;;
18818;SDS011;9537;45.594;9.294;2023-09-18T01:58:40;8.50;;;7.60;;
18818;SDS011;9537;45.594;9.294;2023-09-18T01:59:42;8.05;;;7.25;;
18818;SDS011;9537;45.594;9.294;2023-09-18T02:00:43;10.65;;;7.05;;
18818;SDS011;9537;45.594;9.294;2023-09-18T02:01:48;7.95;;;7.13;;
18818;SDS011;9537;45.594;9.294;2023-09-18T02:02:49;13.77;;;7.63;;
18818;SDS011;9537;45.594;9.294;2023-09-18T02:03:51;12.10;;;7.82;;
18818;SDS011;9537;45.594;9.294;2023-09-18T02:04:52;9.30;;;7.50;;
18818;SDS011;9537;45.594;9.294;2023-09-18T02:05:53;9.23;;;7.55;;
18818;SDS011;9537;45.594;9.294;2023-09-18T02:06:54;8.38;;;6.93;;
18818;SDS011;9537;45.594;9.294;2023-09-18T02:07:57;8.95;;;7.32;;
18818;SDS011;9537;45.594;9.294;2023-09-18T02:08:58;9.27;;;7.85;;
18818;SDS011;9537;45.594;9.294;2023-09-18T02:10:02;9.70;;;7.00;;
18818;SDS011;9537;45.594;9.294;2023-09-18T02:11:03;7.90;;;7.13;;
18818;SDS011;9537;45.594;9.294;2023-09-18T02:12:05;7.97;;;6.90;;
18818;SDS011;9537;45.594;9.294;2023-09-18T02:13:06;10.32;;;7.00;;
18818;SDS011;9537;45.594;9.294;2023-09-18T02:14:07;10.88;;;6.88;;
18818;SDS011;9537;45.594;9.294;2023-09-18T02:15:10;8.93;;;7.00;;
18818;SDS011;9537;45.594;9.294;2023-09-18T02:16:11;10.35;;;7.47;;
18818;SDS011;9537;45.594;9.294;2023-09-18T02:17:13;8.43;;;6.70;;
18818;SDS011;9537;45.594;9.294;2023-09-18T02:18:13;14.50;;;6.95;;
18818;SDS011;9537;45.594;9.294;2023-09-18T02:19:16;12.35;;;7.38;;
18818;SDS011;9537;45.594;9.294;2023-09-18T02:20:17;11.85;;;7.13;;
18818;SDS011;9537;45.594;9.294;2023-09-18T02:21:19;10.93;;;6.88;;
18818;SDS011;9537;45.594;9.294;2023-09-18T02:22:21;9.50;;;7.00;;
18818;SDS011;9537;45.594;9.294;2023-09-18T02:23:23;9.70;;;6.97;;
18818;SDS011;9537;45.594;9.294;2023-09-18T02:24:23;13.48;;;7.65;;
18818;SDS011;9537;45.594;9.294;2023-09-18T02:25:27;9.15;;;7.57;;
18818;SDS011;9537;45.594;9.294;2023-09-18T02:26:28;10.88;;;7.18;;
18818;SDS011;9537;45.594;9.294;2023-09-18T02:27:30;11.07;;;6.93;;
18818;SDS011;9537;45.594;9.294;2023-09-18T02:28:31;8.30;;;7.03;;
18818;SDS011;9537;45.594;9.294;2023-09-18T02:29:32;7.18;;;6.45;;
18818;SDS011;9537;45.594;9.294;2023-09-18T02:30:33;11.57;;;7.30;;
18818;SDS011;9537;45.594;9.294;2023-09-18T02:31:35;9.13;;;6.90;;
18818;SDS011;9537;45.594;9.294;2023-09-18T02:32:36;12.38;;;7.68;;
18818;SDS011;9537;45.594;9.294;2023-09-18T02:33:38;9.88;;;7.03;;
18818;SDS011;9537;45.594;9.294;2023-09-18T02:34:39;11.88;;;8.00;;
18818;SDS011;9537;45.594;9.294;2023-09-18T02:35:41;11.25;;;7.40;;
18818;SDS011;9537;45.594;9.294;2023-09-18T02:36:43;10.93;;;7.55;;
18818;SDS011;9537;45.594;9.294;2023-09-18T02:37:47;9.52;;;7.68;;
18818;SDS011;9537;45.594;9.294;2023-09-18T02:38:48;9.50;;;6.68;;
18818;SDS011;9537;45.594;9.294;2023-09-18T02:39:50;8.52;;;6.97;;
18818;SDS011;9537;45.594;9.294;2023-09-18T02:40:52;6.40;;;5.80;;
18818;SDS011;9537;45.594;9.294;2023-09-18T02:41:54;9.88;;;5.78;;
18818;SDS011;9537;45.594;9.294;2023-09-18T02:42:55;8.48;;;5.88;;
18818;SDS011;9537;45.594;9.294;2023-09-18T02:43:57;8.50;;;5.95;;
18818;SDS011;9537;45.594;9.294;2023-09-18T02:44:57;7.43;;;5.55;;
18818;SDS011;9537;45.594;9.294;2023-09-18T02:45:59;7.75;;;5.60;;
18818;SDS011;9537;45.594;9.294;2023-09-18T02:47:00;10.57;;;5.28;;
18818;SDS011;9537;45.594;9.294;2023-09-18T02:48:02;7.65;;;5.50;;
18818;SDS011;9537;45.594;9.294;2023-09-18T02:49:04;7.15;;;5.15;;
18818;SDS011;9537;45.594;9.294;2023-09-18T02:50:06;10.32;;;6.40;;
18818;SDS011;9537;45.594;9.294;2023-09-18T02:51:07;7.82;;;6.10;;
18818;SDS011;9537;45.594;9.294;2023-09-18T02:52:10;7.05;;;5.60;;
18818;SDS011;9537;45.594;9.294;2023-09-18T02:53:16;8.40;;;5.78;;
18818;SDS011;9537;45.594;9.294;2023-09-18T02:54:19;7.97;;;5.95;;
18818;SDS011;9537;45.594;9.294;2023-09-18T02:55:19;8.70;;;5.70;;
18818;SDS011;9537;45.594;9.294;2023-09-18T02:56:24;9.98;;;6.03;;
18818;SDS011;9537;45.594;9.294;2023-09-18T02:57:25;6.68;;;5.00;;
18818;SDS011;9537;45.594;9.294;2023-09-18T02:58:26;7.00;;;5.22;;
18818;SDS011;9537;45.594;9.294;2023-09-18T02:59:29;8.43;;;4.97;;
18818;SDS011;9537;45.594;9.294;2023-09-18T03:00:32;6.70;;;4.97;;
18818;SDS011;9537;45.594;9.294;2023-09-18T03:01:33;7.40;;;5.07;;
18818;SDS011;9537;45.594;9.294;2023-09-18T03:02:34;6.55;;;4.85;;
18818;SDS011;9537;45.594;9.294;2023-09-18T03:03:35;8.93;;;5.22;;
18818;SDS011;9537;45.594;9.294;2023-09-18T03:04:37;6.03;;;4.68;;
18818;SDS011;9537;45.594;9.294;2023-09-18T03:05:38;9.00;;;4.63;;
18818;SDS011;9537;45.594;9.294;2023-09-18T03:06:40;6.47;;;4.95;;
18818;SDS011;9537;45.594;9.294;2023-09-18T03:07:41;5.78;;;4.93;;
18818;SDS011;9537;45.594;9.294;2023-09-18T03:08:44;7.82;;;5.90;;
18818;SDS011;9537;45.594;9.294;2023-09-18T03:09:45;7.60;;;5.43;;
18818;SDS011;9537;45.594;9.294;2023-09-18T03:10:47;8.48;;;5.35;;
18818;SDS011;9537;45.594;9.294;2023-09-18T03:11:49;5.22;;;4.78;;
18818;SDS011;9537;45.594;9.294;2023-09-18T03:12:51;7.15;;;5.68;;
18818;SDS011;9537;45.594;9.294;2023-09-18T03:13:52;8.45;;;5.80;;
18818;SDS011;9537;45.594;9.294;2023-09-18T03:14:54;7.07;;;5.38;;
18818;SDS011;9537;45.594;9.294;2023-09-18T03:15:55;6.40;;;5.35;;
18818;SDS011;9537;45.594;9.294;2023-09-18T03:16:58;6.05;;;5.45;;
18818;SDS011;9537;45.594;9.294;2023-09-18T03:17:59;9.25;;;5.60;;
18818;SDS011;9537;45.594;9.294;2023-09-18T03:19:02;7.60;;;5.70;;
18818;SDS011;9537;45.594;9.294;2023-09-18T03:20:02;6.90;;;5.57;;
18818;SDS011;9537;45.594;9.294;2023-09-18T03:21:05;7.60;;;5.68;;
18818;SDS011;9537;45.594;9.294;2023-09-18T03:22:06;10.23;;;5.70;;
18818;SDS011;9537;45.594;9.294;2023-09-18T03:23:08;6.03;;;5.25;;
18818;SDS011;9537;45.594;9.294;2023-09-18T03:24:09;9.00;;;4.85;;
18818;SDS011;9537;45.594;9.294;2023-09-18T03:25:11;8.77;;;5.93;;
18818;SDS011;9537;45.594;9.294;2023-09-18T03:26:11;8.38;;;5.35;;
18818;SDS011;9537;45.594;9.294;2023-09-18T03:27:14;10.75;;;5.57;;
18818;SDS011;9537;45.594;9.294;2023-09-18T03:28:15;6.55;;;5.15;;
18818;SDS011;9537;45.594;9.294;2023-09-18T03:29:16;6.82;;;5.13;;
18818;SDS011;9537;45.594;9.294;2023-09-18T03:30:18;6.88;;;5.63;;
18818;SDS011;9537;45.594;9.294;2023-09-18T03:31:19;10.48;;;5.80;;
18818;SDS011;9537;45.594;9.294;2023-09-18T03:32:20;6.97;;;4.97;;
18818;SDS011;9537;45.594;9.294;2023-09-18T03:33:21;8.07;;;5.53;;
18818;SDS011;9537;45.594;9.294;2023-09-18T03:34:23;9.65;;;5.70;;
18818;SDS011;9537;45.594;9.294;2023-09-18T03:35:28;6.45;;;5.68;;
18818;SDS011;9537;45.594;9.294;2023-09-18T03:36:30;8.75;;;5.30;;
18818;SDS011;9537;45.594;9.294;2023-09-18T03:37:32;10.15;;;5.43;;
18818;SDS011;9537;45.594;9.294;2023-09-18T03:38:33;8.10;;;5.25;;
18818;SDS011;9537;45.594;9.294;2023-09-18T03:39:35;8.25;;;5.13;;
18818;SDS011;9537;45.594;9.294;2023-09-18T03:40:36;7.03;;;5.50;;
18818;SDS011;9537;45.594;9.294;2023-09-18T03:41:38;10.10;;;5.32;;
18818;SDS011;9537;45.594;9.294;2023-09-18T03:42:40;7.30;;;5.05;;
18818;SDS011;9537;45.594;9.294;2023-09-18T03:43:42;7.70;;;5.20;;
18818;SDS011;9537;45.594;9.294;2023-09-18T03:44:43;7.85;;;5.78;;
18818;SDS011;9537;45.594;9.294;2023-09-18T03:45:44;10.13;;;5.32;;
18818;SDS011;9537;45.594;9.294;2023-09-18T03:46:45;6.93;;;4.75;;
18818;SDS011;9537;45.594;9.294;2023-09-18T03:47:47;8.13;;;5.05;;
18818;SDS011;9537;45.594;9.294;2023-09-18T03:48:50;10.60;;;5.60;;
18818;SDS011;9537;45.594;9.294;2023-09-18T03:49:51;8.63;;;5.22;;
18818;SDS011;9537;45.594;9.294;2023-09-18T03:50:52;8.15;;;5.50;;
18818;SDS011;9537;45.594;9.294;2023-09-18T03:51:54;8.63;;;5.03;;
18818;SDS011;9537;45.594;9.294;2023-09-18T03:52:55;7.35;;;5.60;;
18818;SDS011;9537;45.594;9.294;2023-09-18T03:53:56;9.45;;;5.90;;
18818;SDS011;9537;45.594;9.294;2023-09-18T03:54:57;7.43;;;5.18;;
18818;SDS011;9537;45.594;9.294;2023-09-18T03:55:58;6.07;;;5.18;;
18818;SDS011;9537;45.594;9.294;2023-09-18T03:57:00;9.55;;;5.03;;
18818;SDS011;9537;45.594;9.294;2023-09-18T03:58:02;9.27;;;5.90;;
18818;SDS011;9537;45.594;9.294;2023-09-18T03:59:05;5.80;;;4.78;;
18818;SDS011;9537;45.594;9.294;2023-09-18T04:00:07;6.63;;;5.45;;
18818;SDS011;9537;45.594;9.294;2023-09-18T04:01:08;8.15;;;5.25;;
18818;SDS011;9537;45.594;9.294;2023-09-18T04:02:10;8.57;;;5.03;;
18818;SDS011;9537;45.594;9.294;2023-09-18T04:03:11;7.88;;;5.07;;
18818;SDS011;9537;45.594;9.294;2023-09-18T04:04:11;7.05;;;5.60;;
18818;SDS011;9537;45.594;9.294;2023-09-18T04:05:14;7.63;;;4.93;;
18818;SDS011;9537;45.594;9.294;2023-09-18T04:06:15;7.30;;;5.20;;
18818;SDS011;9537;45.594;9.294;2023-09-18T04:07:20;7.78;;;5.45;;
18818;SDS011;9537;45.594;9.294;2023-09-18T04:08:22;8.63;;;6.35;;
18818;SDS011;9537;45.594;9.294;2023-09-18T04:09:24;8.38;;;6.13;;
18818;SDS011;9537;45.594;9.294;2023-09-18T04:10:25;7.68;;;5.68;;
18818;SDS011;9537;45.594;9.294;2023-09-18T04:11:27;9.88;;;5.55;;
18818;SDS011;9537;45.594;9.294;2023-09-18T04:12:32;6.65;;;5.20;;
18818;SDS011;9537;45.594;9.294;2023-09-18T04:13:35;8.00;;;5.70;;
18818;SDS011;9537;45.594;9.294;2023-09-18T04:14:37;14.02;;;5.72;;
18818;SDS011;9537;45.594;9.294;2023-09-18T04:15:39;8.73;;;5.90;;
18818;SDS011;9537;45.594;9.294;2023-09-18T04:16:41;8.93;;;5.97;;
18818;SDS011;9537;45.594;9.294;2023-09-18T04:17:44;10.30;;;6.50;;
18818;SDS011;9537;45.594;9.294;2023-09-18T04:18:45;10.65;;;6.05;;
18818;SDS011;9537;45.594;9.294;2023-09-18T04:19:47;9.05;;;6.05;;
18818;SDS011;9537;45.594;9.294;2023-09-18T04:20:48;7.00;;;6.20;;
18818;SDS011;9537;45.594;9.294;2023-09-18T04:21:51;9.45;;;7.05;;
18818;SDS011;9537;45.594;9.294;2023-09-18T04:24:18;12.57;;;7.15;;
18818;SDS011;9537;45.594;9.294;2023-09-18T04:25:20;11.88;;;7.65;;
18818;SDS011;9537;45.594;9.294;2023-09-18T04:26:22;11.13;;;7.45;;
18818;SDS011;9537;45.594;9.294;2023-09-18T04:27:24;10.55;;;8.02;;
18818;SDS011;9537;45.594;9.294;2023-09-18T04:28:25;15.85;;;8.57;;
18818;SDS011;9537;45.594;9.294;2023-09-18T04:29:28;14.07;;;9.18;;
18818;SDS011;9537;45.594;9.294;2023-09-18T04:30:29;12.52;;;9.32;;
18818;SDS011;9537;45.594;9.294;2023-09-18T04:31:31;12.60;;;10.40;;
18818;SDS011;9537;45.594;9.294;2023-09-18T04:32:32;13.68;;;9.63;;
18818;SDS011;9537;45.594;9.294;2023-09-18T04:33:34;13.45;;;9.93;;
18818;SDS011;9537;45.594;9.294;2023-09-18T04:34:34;13.65;;;10.35;;
18818;SDS011;9537;45.594;9.294;2023-09-18T04:35:36;12.90;;;9.77;;
18818;SDS011;9537;45.594;9.294;2023-09-18T04:36:39;18.20;;;11.20;;
18818;SDS011;9537;45.594;9.294;2023-09-18T04:39:08;15.32;;;11.05;;
18818;SDS011;9537;45.594;9.294;2023-09-18T04:40:09;17.63;;;12.18;;
18818;SDS011;9537;45.594;9.294;2023-09-18T04:41:11;17.95;;;12.38;;
18818;SDS011;9537;45.594;9.294;2023-09-18T04:42:12;15.50;;;12.52;;
18818;SDS011;9537;45.594;9.294;2023-09-18T04:43:14;16.15;;;12.43;;
18818;SDS011;9537;45.594;9.294;2023-09-18T04:44:14;16.20;;;12.52;;
18818;SDS011;9537;45.594;9.294;2023-09-18T04:45:19;17.65;;;13.23;;
18818;SDS011;9537;45.594;9.294;2023-09-18T04:46:19;17.42;;;13.48;;
18818;SDS011;9537;45.594;9.294;2023-09-18T04:47:21;21.13;;;15.20;;
18818;SDS011;9537;45.594;9.294;2023-09-18T04:48:22;19.85;;;14.18;;
18818;SDS011;9537;45.594;9.294;2023-09-18T04:49:24;21.60;;;15.60;;
18818;SDS011;9537;45.594;9.294;2023-09-18T04:50:25;17.90;;;14.73;;
18818;SDS011;9537;45.594;9.294;2023-09-18T04:51:27;24.88;;;17.52;;
18818;SDS011;9537;45.594;9.294;2023-09-18T04:52:28;21.63;;;15.73;;
18818;SDS011;9537;45.594;9.294;2023-09-18T04:53:30;24.30;;;16.13;;
18818;SDS011;9537;45.594;9.294;2023-09-18T04:54:31;20.42;;;15.98;;
18818;SDS011;9537;45.594;9.294;2023-09-18T04:55:33;20.35;;;16.15;;
18818;SDS011;9537;45.594;9.294;2023-09-18T04:56:34;22.75;;;17.73;;
18818;SDS011;9537;45.594;9.294;2023-09-18T04:57:37;22.25;;;17.20;;
18818;SDS011;9537;45.594;9.294;2023-09-18T04:58:38;22.50;;;18.15;;
18818;SDS011;9537;45.594;9.294;2023-09-18T04:59:40;22.23;;;16.50;;
18818;SDS011;9537;45.594;9.294;2023-09-18T05:00:42;21.40;;;16.50;;
18818;SDS011;9537;45.594;9.294;2023-09-18T05:01:44;23.55;;;17.15;;
18818;SDS011;9537;45.594;9.294;2023-09-18T05:02:45;22.98;;;18.52;;
18818;SDS011;9537;45.594;9.294;2023-09-18T05:03:47;23.58;;;17.20;;
18818;SDS011;9537;45.594;9.294;2023-09-18T05:04:48;21.83;;;17.90;;
18818;SDS011;9537;45.594;9.294;2023-09-18T05:05:51;22.45;;;17.15;;
18818;SDS011;9537;45.594;9.294;2023-09-18T05:06:51;24.63;;;17.48;;
18818;SDS011;9537;45.594;9.294;2023-09-18T05:07:54;24.80;;;18.98;;
18818;SDS011;9537;45.594;9.294;2023-09-18T05:08:55;28.85;;;19.52;;
18818;SDS011;9537;45.594;9.294;2023-09-18T05:09:57;25.02;;;17.95;;
18818;SDS011;9537;45.594;9.294;2023-09-18T05:10:58;24.30;;;18.70;;
18818;SDS011;9537;45.594;9.294;2023-09-18T05:11:59;22.55;;;18.17;;
18818;SDS011;9537;45.594;9.294;2023-09-18T05:13:02;23.80;;;19.40;;
18818;SDS011;9537;45.594;9.294;2023-09-18T05:14:03;24.40;;;18.85;;
18818;SDS011;9537;45.594;9.294;2023-09-18T05:15:06;27.08;;;20.45;;
18818;SDS011;9537;45.594;9.294;2023-09-18T05:16:11;26.23;;;19.65;;
18818;SDS011;9537;45.594;9.294;2023-09-18T05:17:14;21.88;;;18.70;;
18818;SDS011;9537;45.594;9.294;2023-09-18T05:18:15;25.58;;;20.13;;
18818;SDS011;9537;45.594;9.294;2023-09-18T05:19:17;26.17;;;20.27;;
18818;SDS011;9537;45.594;9.294;2023-09-18T05:20:18;23.95;;;18.05;;
18818;SDS011;9537;45.594;9.294;2023-09-18T05:21:19;30.00;;;21.73;;
18818;SDS011;9537;45.594;9.294;2023-09-18T05:22:25;27.70;;;20.55;;
18818;SDS011;9537;45.594;9.294;2023-09-18T05:23:26;26.65;;;20.50;;
18818;SDS011;9537;45.594;9.294;2023-09-18T05:24:28;28.23;;;21.95;;
18818;SDS011;9537;45.594;9.294;2023-09-18T05:25:29;29.50;;;20.77;;
18818;SDS011;9537;45.594;9.294;2023-09-18T05:26:32;28.17;;;21.70;;
18818;SDS011;9537;45.594;9.294;2023-09-18T05:27:33;27.17;;;21.35;;
18818;SDS011;9537;45.594;9.294;2023-09-18T05:28:35;28.42;;;21.10;;
18818;SDS011;9537;45.594;9.294;2023-09-18T05:29:36;26.35;;;19.92;;
18818;SDS011;9537;45.594;9.294;2023-09-18T05:30:38;26.10;;;20.98;;
18818;SDS011;9537;45.594;9.294;2023-09-18T05:31:40;30.35;;;21.83;;
18818;SDS011;9537;45.594;9.294;2023-09-18T05:32:42;28.50;;;21.80;;
18818;SDS011;9537;45.594;9.294;2023-09-18T05:33:43;29.95;;;21.95;;
18818;SDS011;9537;45.594;9.294;2023-09-18T05:34:45;26.35;;;21.85;;
18818;SDS011;9537;45.594;9.294;2023-09-18T05:35:46;29.50;;;22.25;;
18818;SDS011;9537;45.594;9.294;2023-09-18T05:36:49;28.60;;;21.23;;
18818;SDS011;9537;45.594;9.294;2023-09-18T05:37:50;27.33;;;21.13;;
18818;SDS011;9537;45.594;9.294;2023-09-18T05:38:51;29.67;;;22.67;;
18818;SDS011;9537;45.594;9.294;2023-09-18T05:39:52;32.40;;;24.55;;
18818;SDS011;9537;45.594;9.294;2023-09-18T05:40:53;29.70;;;22.92;;
18818;SDS011;9537;45.594;9.294;2023-09-18T05:41:55;28.52;;;20.80;;
18818;SDS011;9537;45.594;9.294;2023-09-18T05:42:56;26.98;;;21.35;;
18818;SDS011;9537;45.594;9.294;2023-09-18T05:43:58;27.98;;;22.08;;
18818;SDS011;9537;45.594;9.294;2023-09-18T05:44:59;28.63;;;21.67;;
18818;SDS011;9537;45.594;9.294;2023-09-18T05:46:01;32.53;;;23.73;;
18818;SDS011;9537;45.594;9.294;2023-09-18T05:47:03;34.97;;;25.50;;
18818;SDS011;9537;45.594;9.294;2023-09-18T05:48:05;33.15;;;25.35;;
18818;SDS011;9537;45.594;9.294;2023-09-18T05:49:06;33.22;;;25.27;;
18818;SDS011;9537;45.594;9.294;2023-09-18T05:50:08;36.72;;;26.02;;
18818;SDS011;9537;45.594;9.294;2023-09-18T05:51:14;34.78;;;25.90;;
18818;SDS011;9537;45.594;9.294;2023-09-18T05:52:16;37.33;;;27.33;;
18818;SDS011;9537;45.594;9.294;2023-09-18T05:53:17;32.05;;;25.13;;
18818;SDS011;9537;45.594;9.294;2023-09-18T05:54:19;33.67;;;26.27;;
18818;SDS011;9537;45.594;9.294;2023-09-18T05:55:20;36.83;;;27.45;;
18818;SDS011;9537;45.594;9.294;2023-09-18T05:56:21;33.80;;;26.40;;
18818;SDS011;9537;45.594;9.294;2023-09-18T05:57:24;39.70;;;29.88;;
18818;SDS011;9537;45.594;9.294;2023-09-18T05:58:27;40.13;;;26.85;;
18818;SDS011;9537;45.594;9.294;2023-09-18T05:59:28;35.13;;;26.52;;
18818;SDS011;9537;45.594;9.294;2023-09-18T06:00:29;33.55;;;27.02;;
18818;SDS011;9537;45.594;9.294;2023-09-18T06:01:31;33.80;;;26.02;;
18818;SDS011;9537;45.594;9.294;2023-09-18T06:02:34;30.92;;;25.40;;
18818;SDS011;9537;45.594;9.294;2023-09-18T06:03:35;36.97;;;26.75;;
18818;SDS011;9537;45.594;9.294;2023-09-18T06:04:37;34.90;;;26.60;;
18818;SDS011;9537;45.594;9.294;2023-09-18T06:05:38;33.45;;;26.77;;
18818;SDS011;9537;45.594;9.294;2023-09-18T06:06:40;37.17;;;26.45;;
18818;SDS011;9537;45.594;9.294;2023-09-18T06:07:40;35.97;;;27.30;;
18818;SDS011;9537;45.594;9.294;2023-09-18T06:08:42;39.30;;;27.70;;
18818;SDS011;9537;45.594;9.294;2023-09-18T06:09:43;34.70;;;24.63;;
18818;SDS011;9537;45.594;9.294;2023-09-18T06:10:45;37.25;;;26.30;;
18818;SDS011;9537;45.594;9.294;2023-09-18T06:11:46;33.17;;;25.38;;
18818;SDS011;9537;45.594;9.294;2023-09-18T06:12:48;33.38;;;25.70;;
18818;SDS011;9537;45.594;9.294;2023-09-18T06:13:49;33.78;;;25.80;;
18818;SDS011;9537;45.594;9.294;2023-09-18T06:14:51;35.90;;;26.17;;
18818;SDS011;9537;45.594;9.294;2023-09-18T06:15:54;36.03;;;27.75;;
18818;SDS011;9537;45.594;9.294;2023-09-18T06:16:57;34.80;;;27.48;;
18818;SDS011;9537;45.594;9.294;2023-09-18T06:17:59;35.85;;;26.48;;